LFBF

Toulouse-Francazal (BA 101) Air Base

Airport
ICAO code
LFBF
Summary
ICAO Region
EUR
ICAO Territory
Location

, Midi-Pyrenees

Serving
Toulouse
Elevation
535 ft
Coordinates
43° 32' 44" N , 1° 22' 3" E
Metar
Observation
LFBF 011230Z AUTO 33004KT 300V360 9999 OVC011 06/04 Q1020
Station
Toulouse / Francazal
Date/Time
2022-12-01 12:30:00
Wind direction
330°
Wind speed
04 kts
Lowest cloud amount
overcast
Temperature
6°C
Dew point
4°C
Humidity
86%
QNH
1020 hPa
Weather condition
n/a

Runways

Designator Length Width Surface Rops
12/30 1800 45 ASP No/No

Airport map

Aerial View

SKYbrary Partners:

Safety knowledge contributed by: